createdAt,value
2023-02-14T00:00:22.238Z,5.30
2023-02-14T00:02:50.376Z,4.40
2023-02-14T00:05:18.509Z,5.10
2023-02-14T00:07:47.071Z,4.40
2023-02-14T00:10:15.588Z,5.40
2023-02-14T00:12:43.631Z,5.40
2023-02-14T00:15:32.286Z,5.30
2023-02-14T00:18:03.646Z,5.30
2023-02-14T00:20:32.530Z,5.20
2023-02-14T00:23:01.113Z,4.10
2023-02-14T00:25:29.539Z,4.40
2023-02-14T00:27:57.956Z,5.10
2023-02-14T00:30:26.383Z,4.50
2023-02-14T00:32:54.488Z,5.00
2023-02-14T00:35:22.534Z,4.80
2023-02-14T00:37:50.617Z,3.90
2023-02-14T00:40:22.514Z,5.10
2023-02-14T00:42:50.559Z,4.90
2023-02-14T00:45:20.560Z,3.60
2023-02-14T00:47:48.761Z,4.40
2023-02-14T00:50:17.176Z,3.30
2023-02-14T00:52:46.139Z,4.10
2023-02-14T00:55:14.178Z,4.40
2023-02-14T00:57:42.236Z,4.10
2023-02-14T01:00:12.072Z,4.00
2023-02-14T01:02:40.242Z,3.20
2023-02-14T01:05:09.406Z,5.00
2023-02-14T01:07:38.098Z,5.40
2023-02-14T01:10:07.151Z,4.40
2023-02-14T01:12:36.498Z,4.10
2023-02-14T01:15:05.109Z,5.20
2023-02-14T01:17:33.932Z,4.10
2023-02-14T01:20:02.269Z,4.30
2023-02-14T01:22:38.436Z,3.80
2023-02-14T01:25:07.252Z,4.20
2023-02-14T01:27:35.381Z,4.40
2023-02-14T01:30:04.014Z,4.30
2023-02-14T01:32:32.700Z,4.40
2023-02-14T01:35:18.009Z,3.90
2023-02-14T01:37:49.161Z,3.50
2023-02-14T01:40:17.623Z,4.60
2023-02-14T01:42:47.921Z,3.20
2023-02-14T01:45:21.119Z,6.00
2023-02-14T01:47:52.290Z,3.80
2023-02-14T01:50:26.363Z,3.90
2023-02-14T01:53:00.000Z,4.60
2023-02-14T01:55:30.825Z,4.00
2023-02-14T01:58:20.618Z,3.90
2023-02-14T02:00:59.176Z,3.70
2023-02-14T02:03:35.896Z,3.70
2023-02-14T02:06:32.165Z,3.70
2023-02-14T02:09:21.979Z,3.20
2023-02-14T02:11:50.268Z,3.80
2023-02-14T02:14:20.113Z,4.10
2023-02-14T02:16:54.406Z,4.80
2023-02-14T02:19:41.425Z,6.00
2023-02-14T02:22:33.875Z,7.70
2023-02-14T02:25:14.085Z,7.10
2023-02-14T02:27:55.736Z,5.90
2023-02-14T02:31:13.564Z,4.20
2023-02-14T02:34:39.259Z,5.00
2023-02-14T02:37:23.531Z,6.60
2023-02-14T02:40:11.061Z,8.80
2023-02-14T02:43:01.859Z,7.80
2023-02-14T02:46:08.864Z,9.20
2023-02-14T02:48:48.155Z,7.40
2023-02-14T02:51:46.708Z,4.90
2023-02-14T02:54:28.903Z,5.40
2023-02-14T02:56:58.823Z,5.50
2023-02-14T02:59:31.511Z,5.20
2023-02-14T03:02:09.997Z,4.50
2023-02-14T03:04:56.143Z,4.90
2023-02-14T03:07:39.432Z,4.90
2023-02-14T03:10:13.219Z,4.00
2023-02-14T03:13:16.294Z,5.50
2023-02-14T03:16:11.579Z,4.90
2023-02-14T03:19:02.512Z,4.60
2023-02-14T03:21:52.404Z,3.90
2023-02-14T03:24:49.340Z,4.60
2023-02-14T03:27:33.187Z,4.50
2023-02-14T03:30:20.184Z,4.80
2023-02-14T03:33:03.216Z,4.50
2023-02-14T03:36:16.717Z,4.60
2023-02-14T03:39:02.631Z,4.00
2023-02-14T03:41:34.287Z,3.80
2023-02-14T03:44:04.600Z,3.30
2023-02-14T03:46:36.340Z,4.80
2023-02-14T03:49:07.108Z,4.40
2023-02-14T03:51:35.423Z,4.30
2023-02-14T03:54:06.857Z,5.10
2023-02-14T03:56:38.780Z,4.20
2023-02-14T03:59:10.267Z,3.80
2023-02-14T04:01:57.168Z,3.80
2023-02-14T04:04:27.323Z,4.00
2023-02-14T04:06:55.306Z,4.40
2023-02-14T04:09:23.492Z,3.30
2023-02-14T04:11:52.791Z,3.80
2023-02-14T04:14:21.437Z,3.50
2023-02-14T04:17:08.017Z,3.90
2023-02-14T04:19:36.477Z,3.90
2023-02-14T04:22:04.896Z,4.40
2023-02-14T04:24:33.542Z,4.20
2023-02-14T04:27:10.933Z,4.10
2023-02-14T04:29:48.320Z,4.80
2023-02-14T04:32:18.979Z,4.20
2023-02-14T04:34:47.725Z,3.40
2023-02-14T04:37:17.482Z,2.80
2023-02-14T04:39:48.366Z,2.80
2023-02-14T04:42:16.378Z,3.50
2023-02-14T04:44:44.746Z,3.20
2023-02-14T04:47:13.718Z,3.60
2023-02-14T04:49:41.770Z,3.00
2023-02-14T04:52:10.288Z,3.00
2023-02-14T04:54:38.800Z,2.80
2023-02-14T04:57:07.070Z,3.30
2023-02-14T04:59:35.964Z,2.80
2023-02-14T05:02:04.285Z,3.30
2023-02-14T05:04:35.481Z,2.80
2023-02-14T05:07:04.086Z,3.00
2023-02-14T05:09:33.518Z,2.90
2023-02-14T05:12:01.501Z,3.00
2023-02-14T05:14:29.788Z,4.80
2023-02-14T05:16:58.049Z,3.50
2023-02-14T05:19:26.895Z,3.00
2023-02-14T05:21:56.203Z,3.00
2023-02-14T05:24:24.565Z,2.70
2023-02-14T05:26:53.229Z,3.60
2023-02-14T05:29:21.463Z,3.30
2023-02-14T05:31:50.006Z,4.70
2023-02-14T05:34:18.833Z,3.30
2023-02-14T05:36:46.947Z,3.60
2023-02-14T05:39:16.088Z,3.50
2023-02-14T05:41:44.223Z,3.20
2023-02-14T05:44:15.890Z,4.20
2023-02-14T05:46:43.856Z,3.00
2023-02-14T05:49:12.289Z,3.30
2023-02-14T05:51:40.342Z,4.30
2023-02-14T05:54:10.796Z,4.00
2023-02-14T05:56:39.423Z,4.40
2023-02-14T05:59:08.348Z,5.10
2023-02-14T06:01:36.547Z,4.20
2023-02-14T06:04:07.743Z,3.20
2023-02-14T06:06:36.803Z,3.10
2023-02-14T06:09:05.414Z,3.80
2023-02-14T06:11:33.429Z,4.50
2023-02-14T06:14:01.589Z,3.80
2023-02-14T06:16:33.375Z,3.50
2023-02-14T06:19:02.581Z,4.50
2023-02-14T06:21:30.902Z,4.00
2023-02-14T06:23:59.274Z,3.70
2023-02-14T06:26:28.025Z,3.90
2023-02-14T06:28:57.106Z,3.60
2023-02-14T06:31:26.604Z,4.30
2023-02-14T06:33:55.025Z,3.10
2023-02-14T06:36:23.885Z,4.00
2023-02-14T06:38:51.966Z,3.80
2023-02-14T06:41:20.254Z,3.40
2023-02-14T06:43:48.868Z,4.10
2023-02-14T06:46:18.123Z,2.80
2023-02-14T06:48:46.542Z,2.80
2023-02-14T06:51:14.728Z,3.50
2023-02-14T06:53:42.980Z,2.30
2023-02-14T06:56:11.059Z,2.90
2023-02-14T06:58:39.334Z,2.90
2023-02-14T07:01:07.543Z,3.90
2023-02-14T07:03:35.973Z,3.70
2023-02-14T07:06:04.779Z,3.80
2023-02-14T07:11:03.216Z,4.80
2023-02-14T07:13:34.783Z,3.70
2023-02-14T07:16:03.916Z,3.40
2023-02-14T07:18:32.420Z,4.20
2023-02-14T07:21:01.758Z,3.50
2023-02-14T07:23:30.185Z,2.80
2023-02-14T07:25:58.366Z,3.30
2023-02-14T07:28:26.849Z,3.60
2023-02-14T07:30:56.398Z,1.90
2023-02-14T07:33:24.905Z,3.50
2023-02-14T07:35:53.426Z,2.60
2023-02-14T07:38:22.295Z,2.60
2023-02-14T07:40:53.704Z,2.50
2023-02-14T07:43:21.700Z,2.30
2023-02-14T07:45:50.657Z,2.00
2023-02-14T07:48:20.641Z,1.90
2023-02-14T07:50:48.865Z,3.10
2023-02-14T07:53:20.563Z,2.60
2023-02-14T07:55:50.915Z,2.70
2023-02-14T07:58:19.093Z,2.50
2023-02-14T08:00:47.285Z,2.50
2023-02-14T08:03:18.123Z,2.50
2023-02-14T08:05:57.203Z,1.90
2023-02-14T08:08:34.529Z,2.70
2023-02-14T08:11:03.235Z,2.70
2023-02-14T08:13:31.592Z,2.30
2023-02-14T08:16:05.949Z,2.70
2023-02-14T08:18:39.651Z,2.90
2023-02-14T08:21:09.190Z,2.60
2023-02-14T08:23:38.043Z,2.80
2023-02-14T08:26:07.531Z,2.60
2023-02-14T08:28:36.703Z,3.00
2023-02-14T08:31:04.905Z,3.00
2023-02-14T08:33:33.655Z,3.00
2023-02-14T08:36:02.742Z,1.90
2023-02-14T08:38:30.935Z,3.40
2023-02-14T08:41:08.191Z,4.90
2023-02-14T08:43:37.592Z,4.10
2023-02-14T08:46:05.659Z,2.50
2023-02-14T08:48:38.078Z,2.20
2023-02-14T08:51:08.083Z,2.80
2023-02-14T08:53:37.089Z,2.40
2023-02-14T08:56:08.870Z,2.90
2023-02-14T08:58:38.534Z,1.90
2023-02-14T09:01:15.114Z,2.80
2023-02-14T09:03:44.564Z,2.30
2023-02-14T09:06:16.144Z,3.30
2023-02-14T09:08:44.536Z,2.70
2023-02-14T09:11:18.480Z,2.20
2023-02-14T09:13:46.897Z,2.60
2023-02-14T09:16:21.902Z,2.40
2023-02-14T09:18:53.724Z,1.80
2023-02-14T09:21:24.624Z,2.70
2023-02-14T09:24:12.814Z,2.60
2023-02-14T09:26:42.332Z,3.30
2023-02-14T09:29:13.458Z,4.40
2023-02-14T09:31:41.773Z,3.00
2023-02-14T09:34:10.206Z,2.60
2023-02-14T09:36:38.285Z,2.30
2023-02-14T09:39:07.022Z,2.30
2023-02-14T09:41:51.049Z,3.60
2023-02-14T09:44:54.346Z,2.90
2023-02-14T09:47:30.016Z,2.80
2023-02-14T09:49:58.530Z,2.70
2023-02-14T09:52:28.066Z,3.00
2023-02-14T09:54:59.192Z,2.40
2023-02-14T09:57:45.676Z,2.80
2023-02-14T10:00:14.688Z,2.90
2023-02-14T10:02:44.508Z,2.00
2023-02-14T10:05:34.330Z,3.00
2023-02-14T10:08:09.741Z,2.70
2023-02-14T10:10:44.203Z,2.80
2023-02-14T10:13:18.539Z,2.80
2023-02-14T10:15:56.800Z,2.40
2023-02-14T10:18:29.311Z,2.50
2023-02-14T10:20:59.009Z,2.90
2023-02-14T10:23:38.661Z,3.30
2023-02-14T10:26:15.031Z,2.00
2023-02-14T10:28:49.416Z,2.40
2023-02-14T10:31:17.739Z,3.10
2023-02-14T10:34:06.774Z,4.50
2023-02-14T10:37:01.836Z,2.80
2023-02-14T10:39:42.048Z,2.10
2023-02-14T10:42:51.818Z,3.40
2023-02-14T10:45:24.285Z,3.20
2023-02-14T10:47:55.625Z,4.00
2023-02-14T10:50:56.263Z,2.90
2023-02-14T10:53:40.318Z,2.30
2023-02-14T10:56:20.181Z,1.10
2023-02-14T10:58:49.190Z,2.70
2023-02-14T11:01:18.202Z,2.70
2023-02-14T11:03:56.290Z,3.50
2023-02-14T11:06:24.611Z,2.30
2023-02-14T11:08:52.652Z,3.70
2023-02-14T11:11:30.620Z,3.20
2023-02-14T11:13:58.931Z,2.10
2023-02-14T11:16:36.139Z,3.10
2023-02-14T11:19:19.940Z,3.40
2023-02-14T11:21:49.751Z,1.80
2023-02-14T11:24:39.422Z,1.80
2023-02-14T11:27:18.051Z,2.30
2023-02-14T11:29:49.217Z,2.10
2023-02-14T11:32:28.609Z,2.30
2023-02-14T11:34:59.774Z,3.00
2023-02-14T11:37:34.063Z,3.10
2023-02-14T11:40:02.340Z,2.40
2023-02-14T11:42:43.072Z,3.00
2023-02-14T11:48:10.405Z,2.40
2023-02-14T11:50:38.522Z,2.40
2023-02-14T11:53:06.572Z,2.00
2023-02-14T11:55:35.183Z,3.00
2023-02-14T11:58:05.558Z,3.00
2023-02-14T12:00:38.077Z,3.40
2023-02-14T12:03:06.291Z,2.20
2023-02-14T12:05:45.182Z,2.40
2023-02-14T12:08:13.234Z,2.10
2023-02-14T12:10:44.512Z,2.20
2023-02-14T12:13:12.662Z,2.00
2023-02-14T12:15:43.894Z,2.10
2023-02-14T12:18:18.227Z,1.50
2023-02-14T12:21:16.292Z,2.90
2023-02-14T12:24:02.826Z,1.90
2023-02-14T12:27:04.796Z,2.70
2023-02-14T12:29:47.878Z,2.80
2023-02-14T12:32:25.665Z,2.30
2023-02-14T12:35:00.938Z,2.40
2023-02-14T12:37:50.774Z,2.50
2023-02-14T12:40:50.119Z,2.40
2023-02-14T12:43:30.926Z,1.90
2023-02-14T12:46:04.083Z,2.00
2023-02-14T12:48:38.937Z,2.00
2023-02-14T12:51:34.717Z,2.20
2023-02-14T12:54:21.096Z,2.40
2023-02-14T12:57:08.808Z,3.20
2023-02-14T12:59:57.241Z,2.20
2023-02-14T13:02:40.394Z,3.10
2023-02-14T13:05:16.667Z,2.40
2023-02-14T13:08:09.582Z,2.90
2023-02-14T13:11:06.814Z,2.90
2023-02-14T13:13:47.155Z,2.70
2023-02-14T13:16:31.559Z,3.20
2023-02-14T13:19:03.105Z,2.40
2023-02-14T13:21:34.757Z,3.00
2023-02-14T13:24:23.755Z,3.20
2023-02-14T13:26:59.212Z,3.10
2023-02-14T13:29:37.125Z,3.10
2023-02-14T13:32:05.734Z,2.10
2023-02-14T13:34:46.856Z,3.10
2023-02-14T13:37:20.179Z,3.40
2023-02-14T13:40:09.222Z,2.80
2023-02-14T13:42:52.875Z,3.10
2023-02-14T13:45:30.675Z,4.70
2023-02-14T13:48:18.630Z,3.30
2023-02-14T13:50:54.818Z,5.40
2023-02-14T13:53:34.736Z,4.00
2023-02-14T13:56:05.365Z,4.60
2023-02-14T13:58:35.336Z,4.30
2023-02-14T14:01:50.720Z,4.60
2023-02-14T14:04:28.491Z,4.30
2023-02-14T14:07:02.918Z,4.30
2023-02-14T14:09:42.903Z,4.60
2023-02-14T14:12:26.776Z,3.60
2023-02-14T14:15:05.396Z,3.20
2023-02-14T14:17:34.696Z,3.80
2023-02-14T14:20:23.252Z,3.80
2023-02-14T14:22:59.115Z,2.40
2023-02-14T14:25:34.272Z,3.20
2023-02-14T14:28:02.797Z,3.40
2023-02-14T14:30:33.123Z,3.50
2023-02-14T14:36:07.776Z,2.60
2023-02-14T14:38:46.920Z,2.60
2023-02-14T14:41:15.053Z,2.70
2023-02-14T14:43:46.454Z,2.30
2023-02-14T14:46:16.490Z,2.10
2023-02-14T14:48:47.211Z,2.10
2023-02-14T14:51:34.177Z,2.60
2023-02-14T14:54:14.886Z,2.00
2023-02-14T14:56:50.315Z,2.20
2023-02-14T14:59:40.445Z,1.80
2023-02-14T15:02:24.391Z,2.00
2023-02-14T15:04:52.602Z,2.10
2023-02-14T15:07:27.687Z,1.60
2023-02-14T15:09:56.017Z,1.80
2023-02-14T15:12:43.378Z,2.30
2023-02-14T15:15:12.639Z,2.00
2023-02-14T15:17:43.249Z,2.70
2023-02-14T15:20:19.396Z,3.30
2023-02-14T15:22:48.758Z,2.70
2023-02-14T15:25:21.831Z,2.00
2023-02-14T15:27:50.093Z,2.00
2023-02-14T15:30:38.187Z,2.40
2023-02-14T15:33:06.852Z,1.90
2023-02-14T15:35:38.175Z,2.00
2023-02-14T15:38:06.253Z,1.60
2023-02-14T15:40:34.811Z,2.10
2023-02-14T15:43:14.955Z,1.60
2023-02-14T15:48:19.671Z,2.70
2023-02-14T15:50:52.889Z,2.40
2023-02-14T15:53:35.820Z,2.10
2023-02-14T15:56:28.900Z,2.40
2023-02-14T15:59:05.370Z,2.10
2023-02-14T16:01:39.546Z,2.60
2023-02-14T16:04:08.800Z,3.20
2023-02-14T16:09:27.083Z,2.70
2023-02-14T16:11:58.099Z,3.50
2023-02-14T16:14:35.340Z,3.50
2023-02-14T16:17:15.227Z,3.60
2023-02-14T16:19:48.329Z,5.90
2023-02-14T16:22:32.288Z,3.80
2023-02-14T16:25:00.976Z,3.70
2023-02-14T16:27:29.421Z,3.10
2023-02-14T16:29:58.868Z,3.40
2023-02-14T16:32:27.012Z,4.20
2023-02-14T16:34:55.406Z,3.00
2023-02-14T16:37:31.659Z,2.50
2023-02-14T16:40:00.244Z,3.10
2023-02-14T16:42:28.809Z,2.50
2023-02-14T16:44:56.852Z,2.80
2023-02-14T16:47:27.876Z,3.10
2023-02-14T16:49:56.341Z,2.40
2023-02-14T16:52:26.429Z,4.20
2023-02-14T16:57:28.270Z,3.70
2023-02-14T16:59:57.389Z,5.00
2023-02-14T17:02:30.604Z,5.10
2023-02-14T17:04:58.969Z,4.80
2023-02-14T17:07:30.393Z,4.40
2023-02-14T17:10:05.339Z,2.40
2023-02-14T17:12:37.928Z,3.90
2023-02-14T17:15:16.591Z,3.80
2023-02-14T17:17:46.036Z,3.00
2023-02-14T17:20:14.529Z,2.60
2023-02-14T17:22:44.731Z,2.10
2023-02-14T17:25:12.747Z,2.40
2023-02-14T17:27:44.120Z,2.20
2023-02-14T17:30:13.435Z,2.10
2023-02-14T17:32:42.780Z,2.30
2023-02-14T17:35:12.086Z,2.50
2023-02-14T17:37:40.328Z,2.20
2023-02-14T17:40:09.086Z,2.30
2023-02-14T17:42:38.891Z,2.00
2023-02-14T17:45:07.389Z,1.80
2023-02-14T17:47:36.192Z,2.20
2023-02-14T17:50:04.480Z,2.70
2023-02-14T17:52:33.180Z,3.40
2023-02-14T17:55:01.264Z,4.00
2023-02-14T17:57:32.762Z,3.40
2023-02-14T18:00:05.843Z,2.90
2023-02-14T18:02:41.485Z,2.60
2023-02-14T18:05:09.583Z,2.80
2023-02-14T18:07:38.763Z,3.80
2023-02-14T18:10:07.302Z,3.00
2023-02-14T18:12:35.544Z,3.10
2023-02-14T18:15:03.969Z,3.40
2023-02-14T18:17:32.577Z,3.10
2023-02-14T18:20:00.958Z,4.40
2023-02-14T18:22:29.404Z,4.80
2023-02-14T18:24:58.876Z,4.60
2023-02-14T18:27:27.565Z,5.00
2023-02-14T18:29:57.069Z,3.50
2023-02-14T18:32:25.302Z,3.80
2023-02-14T18:34:55.201Z,4.10
2023-02-14T18:37:23.378Z,4.20
2023-02-14T18:39:51.543Z,3.00
2023-02-14T18:42:22.443Z,5.00
2023-02-14T18:44:51.912Z,6.20
2023-02-14T18:47:20.250Z,5.60
2023-02-14T18:49:53.241Z,5.00
2023-02-14T18:52:21.374Z,5.60
2023-02-14T18:54:49.359Z,4.90
2023-02-14T18:57:20.845Z,4.50
2023-02-14T18:59:49.504Z,4.10
2023-02-14T19:02:18.094Z,4.20
2023-02-14T19:04:46.333Z,3.80
2023-02-14T19:07:14.470Z,2.80
2023-02-14T19:09:43.333Z,3.30
2023-02-14T19:12:11.697Z,4.10
2023-02-14T19:14:40.754Z,4.40
2023-02-14T19:17:08.880Z,4.00
2023-02-14T19:19:37.886Z,2.80
2023-02-14T19:22:06.386Z,3.50
2023-02-14T19:24:37.288Z,2.30
2023-02-14T19:27:05.668Z,2.80
2023-02-14T19:29:34.581Z,2.50
2023-02-14T19:32:03.118Z,2.30
2023-02-14T19:34:31.580Z,3.80
2023-02-14T19:37:00.756Z,3.20
2023-02-14T19:39:32.183Z,3.90
2023-02-14T19:42:00.991Z,3.10
2023-02-14T19:44:31.267Z,4.70
2023-02-14T19:47:02.756Z,3.10
2023-02-14T19:49:32.403Z,3.30
2023-02-14T19:52:00.969Z,3.40
2023-02-14T19:54:30.170Z,3.10
2023-02-14T19:56:58.466Z,2.90
2023-02-14T19:59:28.032Z,3.40
2023-02-14T20:01:56.981Z,3.20
2023-02-14T20:04:26.778Z,3.10
2023-02-14T20:06:54.973Z,2.90
2023-02-14T20:09:23.214Z,2.10
2023-02-14T20:11:54.621Z,2.50
2023-02-14T20:14:36.022Z,2.30
2023-02-14T20:17:09.013Z,2.50
2023-02-14T20:19:38.158Z,2.90
2023-02-14T20:22:08.329Z,3.10
2023-02-14T20:24:38.866Z,2.10
2023-02-14T20:27:08.224Z,2.30
2023-02-14T20:29:38.975Z,3.40
2023-02-14T20:32:07.504Z,3.20
2023-02-14T20:34:36.096Z,2.70
2023-02-14T20:37:04.334Z,2.30
2023-02-14T20:39:33.927Z,2.80
2023-02-14T20:42:01.975Z,3.20
2023-02-14T20:44:30.631Z,4.60
2023-02-14T20:46:58.682Z,3.10
2023-02-14T20:49:27.967Z,2.60
2023-02-14T20:51:56.218Z,2.70
2023-02-14T20:54:26.200Z,3.10
2023-02-14T20:56:54.672Z,3.10
2023-02-14T20:59:27.062Z,2.60
2023-02-14T21:01:55.932Z,3.30
2023-02-14T21:04:24.134Z,2.60
2023-02-14T21:06:52.203Z,3.00
2023-02-14T21:09:21.177Z,2.60
2023-02-14T21:11:50.424Z,3.30
2023-02-14T21:14:18.462Z,2.80
2023-02-14T21:16:48.008Z,2.90
2023-02-14T21:19:17.731Z,2.80
2023-02-14T21:21:46.018Z,4.10
2023-02-14T21:24:15.455Z,3.40
2023-02-14T21:26:44.903Z,3.00
2023-02-14T21:29:13.573Z,2.40
2023-02-14T21:31:42.622Z,2.30
2023-02-14T21:34:11.265Z,2.90
2023-02-14T21:36:39.499Z,2.60
2023-02-14T21:39:08.110Z,2.70
2023-02-14T21:41:36.468Z,3.50
2023-02-14T21:44:08.009Z,2.00
2023-02-14T21:46:38.853Z,2.80
2023-02-14T21:49:26.341Z,2.60
2023-02-14T21:51:54.803Z,3.20
2023-02-14T21:54:25.765Z,3.80
2023-02-14T21:56:53.965Z,3.90
2023-02-14T21:59:24.413Z,3.70
2023-02-14T22:01:52.617Z,2.60
2023-02-14T22:04:20.759Z,3.10
2023-02-14T22:06:48.924Z,2.70
2023-02-14T22:09:19.030Z,2.90
2023-02-14T22:11:49.977Z,2.40
2023-02-14T22:14:18.120Z,2.40
2023-02-14T22:16:46.159Z,2.20
2023-02-14T22:19:15.629Z,2.20
2023-02-14T22:21:43.894Z,3.30
2023-02-14T22:24:12.866Z,2.30
2023-02-14T22:26:41.428Z,2.70
2023-02-14T22:29:13.688Z,3.20
2023-02-14T22:31:42.892Z,3.10
2023-02-14T22:34:12.991Z,3.60
2023-02-14T22:36:41.872Z,3.10
2023-02-14T22:39:12.983Z,4.70
2023-02-14T22:41:46.741Z,4.20
2023-02-14T22:44:14.779Z,4.60
2023-02-14T22:46:44.408Z,4.10
2023-02-14T22:49:14.770Z,3.90
2023-02-14T22:51:43.021Z,4.20
2023-02-14T22:54:13.684Z,4.40
2023-02-14T22:56:43.611Z,4.40
2023-02-14T22:59:17.953Z,5.30
2023-02-14T23:01:49.086Z,3.40
2023-02-14T23:04:19.392Z,4.00
2023-02-14T23:06:48.257Z,3.50
2023-02-14T23:09:16.803Z,3.00
2023-02-14T23:11:45.731Z,2.70
2023-02-14T23:14:33.287Z,3.40
2023-02-14T23:17:20.201Z,3.60
2023-02-14T23:20:07.124Z,3.00
2023-02-14T23:22:40.065Z,2.90
2023-02-14T23:25:10.242Z,3.20
2023-02-14T23:27:44.080Z,2.60
2023-02-14T23:30:16.065Z,2.10
2023-02-14T23:32:44.573Z,2.40
2023-02-14T23:35:12.672Z,2.70
2023-02-14T23:37:41.918Z,3.50
2023-02-14T23:40:11.957Z,2.70
2023-02-14T23:42:41.429Z,4.30
2023-02-14T23:45:28.775Z,2.20
2023-02-14T23:48:04.230Z,3.00
2023-02-14T23:50:32.592Z,1.80
2023-02-14T23:53:01.025Z,3.80
2023-02-14T23:55:30.827Z,2.90
2023-02-14T23:57:59.258Z,2.10
